Time;durP1;ratioP1;P1;durP2;ratioP2;P2;SDS_P1;SDS_P2;PMS_P1;PMS_P2;Temp;Humidity;BMP_temperature;BMP_pressure;BME280_temperature;BME280_humidity;BME280_pressure;Samples;Min_cycle;Max_cycle;Signal;HPM_P1;HPM_P2
2021/09/07 00:02:17;;;;;;;27.20;13.70;;;9.30;94.70;;;;;;5072469;28;20020;-82
2021/09/07 00:04:43;;;;;;;20.83;13.07;;;9.30;94.70;;;;;;5072512;28;20032;-82
2021/09/07 00:07:08;;;;;;;22.08;12.55;;;9.20;95.00;;;;;;5072469;28;20020;-82
2021/09/07 00:09:34;;;;;;;22.55;12.05;;;9.20;94.80;;;;;;5072366;28;20035;-82
2021/09/07 00:12:00;;;;;;;29.67;13.88;;;9.20;94.80;;;;;;5073404;28;20020;-82
2021/09/07 00:14:26;;;;;;;33.97;15.45;;;9.20;94.90;;;;;;5073622;28;20521;-82
2021/09/07 00:16:51;;;;;;;30.38;16.20;;;9.20;95.00;;;;;;5072325;28;20025;-82
2021/09/07 00:19:17;;;;;;;30.40;17.33;;;9.20;95.10;;;;;;5072081;28;20465;-82
2021/09/07 00:21:43;;;;;;;39.58;19.13;;;9.10;95.10;;;;;;5072315;28;20027;-82
2021/09/07 00:24:09;;;;;;;41.60;19.35;;;9.10;95.20;;;;;;5073867;28;20482;-82
2021/09/07 00:26:34;;;;;;;35.22;18.40;;;9.10;95.20;;;;;;5073729;28;20446;-82
2021/09/07 00:29:00;;;;;;;36.47;18.30;;;9.10;95.20;;;;;;5072033;28;20029;-82
2021/09/07 00:31:25;;;;;;;29.88;15.65;;;9.10;95.20;;;;;;5073483;28;20028;-82
2021/09/07 00:33:51;;;;;;;25.50;13.57;;;9.00;95.20;;;;;;5073390;28;20150;-82
2021/09/07 00:36:17;;;;;;;29.35;14.18;;;9.10;95.20;;;;;;5073727;28;20052;-82
2021/09/07 00:38:42;;;;;;;24.95;13.18;;;9.00;95.20;;;;;;5073733;28;20382;-82
2021/09/07 00:41:08;;;;;;;26.10;12.55;;;9.10;95.20;;;;;;5073632;28;20467;-82
2021/09/07 00:43:34;;;;;;;24.40;12.35;;;9.00;95.10;;;;;;5077267;28;20588;-82
2021/09/07 00:45:59;;;;;;;22.63;12.25;;;9.00;95.20;;;;;;5076123;28;20029;-82
2021/09/07 00:48:25;;;;;;;22.92;12.70;;;9.00;95.20;;;;;;5077080;28;20024;-82
2021/09/07 00:50:50;;;;;;;23.83;13.35;;;8.90;95.30;;;;;;5075959;28;20111;-82
2021/09/07 00:53:16;;;;;;;24.58;14.15;;;8.90;95.40;;;;;;5077533;28;20036;-82
2021/09/07 00:55:48;;;;;;;25.50;14.13;;;8.90;95.40;;;;;;5075944;28;20121;-82
2021/09/07 00:58:19;;;;;;;24.27;13.88;;;8.90;95.40;;;;;;5076846;28;20376;-82
2021/09/07 01:00:45;;;;;;;26.48;14.15;;;8.90;95.40;;;;;;5077305;28;20042;-82
2021/09/07 01:03:11;;;;;;;29.55;14.63;;;8.90;95.50;;;;;;5076962;28;20027;-82
2021/09/07 01:05:37;;;;;;;26.77;14.73;;;8.80;95.50;;;;;;5076952;28;20025;-82
2021/09/07 01:08:03;;;;;;;29.20;14.73;;;8.90;95.60;;;;;;5076670;28;20078;-82
2021/09/07 01:10:29;;;;;;;26.83;14.52;;;8.90;95.60;;;;;;5076905;28;20024;-82
2021/09/07 01:12:55;;;;;;;26.25;14.30;;;8.90;95.60;;;;;;5076786;28;20429;-82
2021/09/07 01:15:21;;;;;;;25.17;14.43;;;8.90;95.60;;;;;;5075769;28;20032;-82
2021/09/07 01:17:47;;;;;;;30.52;14.23;;;8.90;95.70;;;;;;5074977;28;20033;-82
2021/09/07 01:20:13;;;;;;;25.25;13.50;;;9.00;95.80;;;;;;5076367;28;20045;-82
2021/09/07 01:22:39;;;;;;;24.35;13.98;;;9.00;95.90;;;;;;5075341;28;20028;-82
2021/09/07 01:25:05;;;;;;;24.48;13.48;;;9.00;95.90;;;;;;5076564;28;20032;-82
2021/09/07 01:27:31;;;;;;;23.88;14.27;;;9.20;96.00;;;;;;5076479;28;20024;-82
2021/09/07 01:29:56;;;;;;;27.95;13.45;;;9.20;96.00;;;;;;5075074;28;20025;-82
2021/09/07 01:32:22;;;;;;;25.13;12.98;;;9.30;96.00;;;;;;5074899;28;20036;-82
2021/09/07 01:34:48;;;;;;;23.15;12.35;;;9.40;96.00;;;;;;5076438;28;20036;-82
2021/09/07 01:37:14;;;;;;;26.90;13.45;;;9.50;96.00;;;;;;5076369;28;20025;-82
2021/09/07 01:39:40;;;;;;;23.75;13.55;;;9.60;96.00;;;;;;5075025;28;20055;-82
2021/09/07 01:42:07;;;;;;;25.85;13.82;;;9.70;95.90;;;;;;5075033;28;20036;-82
2021/09/07 01:44:33;;;;;;;24.63;13.52;;;9.80;95.80;;;;;;5076238;28;20067;-82
2021/09/07 01:46:59;;;;;;;26.35;15.20;;;9.80;95.80;;;;;;5074338;28;20532;-82
2021/09/07 01:49:25;;;;;;;24.10;13.90;;;9.90;95.70;;;;;;5075911;28;20029;-82
2021/09/07 01:51:51;;;;;;;25.23;13.73;;;10.00;95.60;;;;;;5075429;28;20071;-82
2021/09/07 01:54:19;;;;;;;26.52;14.38;;;10.10;95.50;;;;;;5076258;28;20467;-82
2021/09/07 01:56:45;;;;;;;26.60;14.40;;;10.10;95.40;;;;;;5075819;28;20032;-82
2021/09/07 01:59:11;;;;;;;27.73;16.27;;;10.10;95.30;;;;;;5074403;28;20384;-82
2021/09/07 02:01:37;;;;;;;23.88;14.27;;;10.20;95.20;;;;;;5074246;28;20056;-82
2021/09/07 02:04:03;;;;;;;26.65;14.27;;;10.30;95.10;;;;;;5075834;28;20016;-82
2021/09/07 02:06:28;;;;;;;26.98;14.00;;;10.30;94.90;;;;;;5075925;28;20067;-82
2021/09/07 02:08:54;;;;;;;26.15;13.93;;;10.40;94.80;;;;;;5074293;28;20083;-82
2021/09/07 02:11:20;;;;;;;26.00;14.23;;;10.40;94.90;;;;;;5074461;28;20032;-82
2021/09/07 02:13:46;;;;;;;25.90;13.20;;;10.40;94.80;;;;;;5074483;28;20123;-82
2021/09/07 02:16:12;;;;;;;25.63;13.63;;;10.40;94.80;;;;;;5073996;28;20070;-82
2021/09/07 02:18:37;;;;;;;26.45;13.68;;;10.50;94.90;;;;;;5075576;28;20040;-82
2021/09/07 02:21:03;;;;;;;25.88;14.50;;;10.50;94.80;;;;;;5075059;28;20131;-82
2021/09/07 02:23:29;;;;;;;28.55;15.52;;;10.50;94.70;;;;;;5074248;28;20031;-82
2021/09/07 02:25:54;;;;;;;29.02;15.65;;;10.60;94.60;;;;;;5073931;28;20494;-81
2021/09/07 02:28:20;;;;;;;30.35;15.68;;;10.60;94.60;;;;;;5074151;28;20034;-81
2021/09/07 02:30:46;;;;;;;28.67;15.70;;;10.60;94.60;;;;;;5075004;28;20417;-82
2021/09/07 02:33:11;;;;;;;26.60;14.70;;;10.60;94.50;;;;;;5074062;28;20485;-82
2021/09/07 02:35:37;;;;;;;25.63;13.05;;;10.70;94.50;;;;;;5074354;28;20050;-82
2021/09/07 02:38:03;;;;;;;25.95;13.35;;;10.70;94.40;;;;;;5073658;28;20123;-82
2021/09/07 02:40:30;;;;;;;21.70;13.00;;;10.70;94.20;;;;;;5073636;28;20032;-82
2021/09/07 02:42:56;;;;;;;22.02;12.85;;;10.70;94.10;;;;;;5075154;28;20062;-81
2021/09/07 02:45:21;;;;;;;19.50;11.63;;;10.70;94.10;;;;;;5072976;28;20021;-84
2021/09/07 02:47:47;;;;;;;22.00;12.23;;;10.70;94.20;;;;;;5074503;28;20089;-84
2021/09/07 02:50:15;;;;;;;19.15;11.65;;;10.70;94.10;;;;;;5075003;28;20103;-84
2021/09/07 02:52:42;;;;;;;22.60;11.88;;;10.50;94.00;;;;;;5073508;28;20025;-85
2021/09/07 02:55:09;;;;;;;22.33;12.07;;;10.50;94.00;;;;;;5073698;28;20471;-84
2021/09/07 02:57:35;;;;;;;24.40;12.20;;;10.40;93.90;;;;;;5073099;28;20039;-85
2021/09/07 03:00:00;;;;;;;22.13;11.20;;;10.30;93.90;;;;;;5073377;28;20032;-84
2021/09/07 03:02:27;;;;;;;22.58;11.77;;;10.10;94.00;;;;;;5056668;28;20028;-84
2021/09/07 03:04:53;;;;;;;19.77;11.98;;;10.00;94.00;;;;;;5068209;28;20020;-83
2021/09/07 03:07:19;;;;;;;26.55;12.85;;;9.90;94.20;;;;;;5072978;28;20486;-84
2021/09/07 03:09:45;;;;;;;20.85;12.85;;;9.80;94.30;;;;;;5073320;28;20071;-85
2021/09/07 03:12:11;;;;;;;30.35;13.88;;;9.80;94.40;;;;;;5074256;28;20052;-85
2021/09/07 03:14:37;;;;;;;26.42;13.68;;;9.70;94.40;;;;;;5074454;28;20027;-85
2021/09/07 03:17:03;;;;;;;27.42;14.13;;;9.70;94.50;;;;;;5073096;28;20070;-85
2021/09/07 03:19:29;;;;;;;30.40;13.23;;;9.60;94.60;;;;;;5072654;28;20060;-85
2021/09/07 03:21:54;;;;;;;25.52;13.32;;;9.50;94.60;;;;;;5073114;28;20050;-85
2021/09/07 03:24:20;;;;;;;24.08;13.23;;;9.50;94.60;;;;;;5072867;28;20040;-85
2021/09/07 18:04:59;;;;;;;32.17;15.38;;;12.90;84.70;;;;;;5112315;27;20381;-81
2021/09/07 18:07:26;;;;;;;34.17;17.33;;;12.40;86.40;;;;;;5111761;28;20051;-81
2021/09/07 18:09:51;;;;;;;32.25;15.50;;;12.40;87.80;;;;;;5109571;28;20020;-82
2021/09/07 18:12:17;;;;;;;37.03;15.82;;;12.40;88.90;;;;;;5111132;28;20031;-82
2021/09/07 18:14:43;;;;;;;38.17;19.20;;;12.50;89.60;;;;;;5111361;28;20024;-82
2021/09/07 18:17:09;;;;;;;39.70;21.48;;;12.60;89.60;;;;;;5109775;28;20027;-83
2021/09/07 18:19:35;;;;;;;27.05;14.32;;;12.70;89.50;;;;;;5109770;28;20511;-82
2021/09/07 18:22:01;;;;;;;21.70;11.75;;;12.70;89.30;;;;;;5109999;28;20020;-82
2021/09/07 18:24:27;;;;;;;16.23;8.90;;;12.80;89.20;;;;;;5109745;28;20106;-82
2021/09/07 18:26:53;;;;;;;15.82;7.90;;;12.90;88.50;;;;;;5109801;28;20026;-83
2021/09/07 18:29:19;;;;;;;15.00;7.53;;;12.90;88.20;;;;;;5109830;28;20020;-82
2021/09/07 18:31:45;;;;;;;13.30;7.05;;;13.00;87.90;;;;;;5109542;28;20024;-83
2021/09/07 18:34:12;;;;;;;14.98;6.35;;;13.00;87.20;;;;;;5109754;28;20024;-83
2021/09/07 18:36:38;;;;;;;11.38;5.50;;;13.10;86.50;;;;;;5109605;28;20532;-84
2021/09/07 18:39:08;;;;;;;8.98;5.10;;;13.10;86.20;;;;;;5110586;28;20032;-84
2021/09/07 18:41:35;;;;;;;11.73;5.25;;;13.10;85.80;;;;;;5110889;28;20024;-83
2021/09/07 18:44:02;;;;;;;11.25;5.50;;;13.10;85.70;;;;;;5110723;28;20032;-84
2021/09/07 18:46:29;;;;;;;7.00;4.80;;;13.10;85.20;;;;;;5113315;28;20034;-83
2021/09/07 18:48:54;;;;;;;8.38;4.70;;;13.10;85.00;;;;;;5118989;27;20027;-83
2021/09/07 18:51:21;;;;;;;11.13;4.72;;;13.20;84.50;;;;;;5109318;28;20080;-83
2021/09/07 18:53:48;;;;;;;7.55;4.35;;;13.20;84.00;;;;;;5110048;28;20490;-83
2021/09/07 18:56:15;;;;;;;9.05;4.78;;;13.20;83.60;;;;;;5110538;28;20035;-83
2021/09/07 18:58:41;;;;;;;10.32;4.60;;;13.20;83.20;;;;;;5109019;28;20024;-83
2021/09/07 19:01:07;;;;;;;21.10;10.88;;;13.20;82.60;;;;;;5110349;28;20375;-83
2021/09/07 19:03:34;;;;;;;19.05;11.18;;;13.20;82.20;;;;;;5108621;28;20044;-83
2021/09/07 19:06:00;;;;;;;33.40;17.10;;;13.20;82.30;;;;;;5109182;28;20024;-84
2021/09/07 19:08:26;;;;;;;24.55;11.07;;;13.30;82.30;;;;;;5108777;28;20077;-83
2021/09/07 19:10:53;;;;;;;10.35;6.38;;;13.20;81.80;;;;;;5110019;28;20470;-87
2021/09/07 19:13:18;;;;;;;12.63;7.22;;;13.20;81.50;;;;;;5109353;28;20020;-86
2021/09/07 19:15:44;;;;;;;10.23;6.03;;;13.20;81.30;;;;;;5099800;28;20479;-84
2021/09/07 19:18:10;;;;;;;7.78;5.03;;;13.20;81.10;;;;;;5095338;28;20028;-84
2021/09/07 19:20:36;;;;;;;7.85;4.60;;;13.20;80.60;;;;;;5096094;28;20028;-84
2021/09/07 19:23:02;;;;;;;7.60;4.28;;;13.30;79.60;;;;;;5094443;28;20484;-83
2021/09/07 19:25:27;;;;;;;4.90;3.65;;;13.30;79.60;;;;;;5095247;28;20470;-84
2021/09/07 19:27:53;;;;;;;5.07;3.60;;;13.30;79.30;;;;;;5095205;28;20020;-81
2021/09/07 19:30:19;;;;;;;4.95;3.47;;;13.30;78.80;;;;;;5094703;28;20035;-81
2021/09/07 19:32:45;;;;;;;6.68;3.70;;;13.30;78.60;;;;;;5094344;28;20027;-82
2021/09/07 19:35:11;;;;;;;6.68;4.25;;;13.30;78.20;;;;;;5095458;28;20078;-82
2021/09/07 19:37:37;;;;;;;6.75;4.40;;;13.30;78.10;;;;;;5095994;28;20025;-82
2021/09/07 19:40:05;;;;;;;5.07;3.95;;;13.30;77.80;;;;;;5095990;28;20035;-81
2021/09/07 19:42:30;;;;;;;8.20;4.50;;;13.30;77.50;;;;;;5094813;28;20082;-82
2021/09/07 19:44:56;;;;;;;6.95;4.45;;;13.30;77.60;;;;;;5095872;28;20035;-82
2021/09/07 19:47:21;;;;;;;6.10;4.28;;;13.20;77.70;;;;;;5094555;28;20024;-82
2021/09/07 19:49:47;;;;;;;6.13;4.45;;;13.20;77.50;;;;;;5095850;28;20024;-82
2021/09/07 19:52:13;;;;;;;6.53;4.70;;;13.20;77.50;;;;;;5095952;28;20034;-82
2021/09/07 19:54:38;;;;;;;10.07;4.85;;;13.20;77.60;;;;;;5095954;28;20150;-83
2021/09/07 19:57:04;;;;;;;10.88;4.90;;;13.20;77.90;;;;;;5096220;28;20024;-82
2021/09/07 19:59:30;;;;;;;7.70;5.28;;;13.10;78.40;;;;;;5095834;28;20020;-83
2021/09/07 20:01:57;;;;;;;12.93;5.82;;;13.10;78.80;;;;;;5094497;28;20060;-83
2021/09/07 20:04:26;;;;;;;11.00;5.45;;;13.00;79.30;;;;;;5095036;28;20040;-83
2021/09/07 20:06:51;;;;;;;9.07;4.95;;;13.00;79.90;;;;;;5095700;28;20024;-83
2021/09/07 20:09:17;;;;;;;10.82;6.20;;;12.90;80.20;;;;;;5095593;28;20016;-83
2021/09/07 20:11:44;;;;;;;11.10;5.95;;;12.80;80.70;;;;;;5095872;28;20020;-83
2021/09/07 20:14:11;;;;;;;11.52;6.32;;;12.80;81.20;;;;;;5095551;28;20024;-83
2021/09/07 20:16:38;;;;;;;12.68;6.55;;;12.80;81.50;;;;;;5095507;28;20024;-83
2021/09/07 20:19:04;;;;;;;17.52;8.13;;;12.70;81.80;;;;;;5095731;28;20120;-83
2021/09/07 20:21:30;;;;;;;30.40;9.68;;;12.70;82.20;;;;;;5095342;28;20497;-83
2021/09/07 20:23:55;;;;;;;22.15;10.63;;;12.60;82.50;;;;;;5093622;28;20099;-83
2021/09/07 20:26:21;;;;;;;25.52;11.32;;;12.60;82.90;;;;;;5094391;28;20016;-83
2021/09/07 20:28:47;;;;;;;34.55;13.00;;;12.50;83.70;;;;;;5095485;28;20024;-84
2021/09/07 20:31:12;;;;;;;36.13;13.63;;;12.50;83.30;;;;;;5095194;28;20024;-84
2021/09/07 20:33:38;;;;;;;33.88;13.00;;;12.40;83.50;;;;;;5093920;28;20122;-83
2021/09/07 20:36:04;;;;;;;36.40;13.77;;;12.40;83.80;;;;;;5094807;28;20024;-83
2021/09/07 20:38:30;;;;;;;31.92;12.68;;;12.30;84.00;;;;;;5095036;28;20032;-84
2021/09/07 20:40:55;;;;;;;66.43;31.63;;;12.30;84.20;;;;;;5095061;28;20030;-84
2021/09/07 20:43:22;;;;;;;39.85;15.35;;;12.30;84.40;;;;;;5093843;28;20024;-84
2021/09/07 20:45:48;;;;;;;29.38;13.45;;;12.20;84.70;;;;;;5093712;28;20031;-84
2021/09/07 20:48:14;;;;;;;25.40;12.18;;;12.20;85.00;;;;;;5093645;28;20028;-84
2021/09/07 20:50:40;;;;;;;24.42;11.63;;;12.10;85.00;;;;;;5093603;28;20115;-84
2021/09/07 20:53:05;;;;;;;26.45;11.35;;;12.10;85.40;;;;;;5094557;28;20478;-84
2021/09/07 20:55:31;;;;;;;25.55;10.45;;;12.00;85.60;;;;;;5093448;28;20359;-84
2021/09/07 20:57:57;;;;;;;25.52;10.82;;;12.00;85.80;;;;;;5094786;28;20024;-84
2021/09/07 21:00:22;;;;;;;22.13;9.60;;;11.90;86.00;;;;;;5094379;28;20035;-84
2021/09/07 21:02:48;;;;;;;21.50;10.45;;;11.90;86.20;;;;;;5093296;28;20036;-84
2021/09/07 21:05:14;;;;;;;21.15;10.20;;;11.90;86.50;;;;;;5094441;28;20394;-84
2021/09/07 21:07:39;;;;;;;20.13;10.32;;;11.80;86.50;;;;;;5094322;28;20479;-84
2021/09/07 21:10:07;;;;;;;18.67;9.93;;;11.90;86.70;;;;;;5094604;28;20351;-84
2021/09/07 21:12:33;;;;;;;24.80;10.00;;;11.80;86.70;;;;;;5093369;28;20032;-84
2021/09/07 21:14:58;;;;;;;19.20;9.95;;;11.80;86.90;;;;;;5093222;28;20228;-84
2021/09/07 21:17:24;;;;;;;19.60;10.30;;;11.80;87.60;;;;;;5094371;28;20024;-84
2021/09/07 21:19:51;;;;;;;19.55;10.05;;;11.80;87.30;;;;;;5093063;28;20035;-84
2021/09/07 21:22:17;;;;;;;17.73;10.07;;;11.70;87.40;;;;;;5094015;28;20047;-84
2021/09/07 21:24:43;;;;;;;17.83;9.80;;;11.70;87.60;;;;;;5094206;28;20031;-84
2021/09/07 21:27:09;;;;;;;18.08;9.30;;;11.70;87.60;;;;;;5093967;28;20485;-84
2021/09/07 21:29:35;;;;;;;16.65;9.77;;;11.60;87.70;;;;;;5094147;28;20024;-84
2021/09/07 21:32:01;;;;;;;17.17;9.63;;;11.60;87.70;;;;;;5094141;28;20424;-84
2021/09/07 21:34:27;;;;;;;15.52;8.93;;;11.60;87.80;;;;;;5094114;28;20032;-84
2021/09/07 21:36:53;;;;;;;16.00;8.43;;;11.50;87.90;;;;;;5094094;28;20020;-84
2021/09/07 21:39:18;;;;;;;17.00;8.55;;;11.50;88.00;;;;;;5092311;28;20056;-84
2021/09/07 21:41:46;;;;;;;13.57;7.95;;;11.50;88.10;;;;;;5092590;28;20493;-84
2021/09/07 21:44:12;;;;;;;15.02;8.20;;;11.50;88.20;;;;;;5093915;28;20016;-84
2021/09/07 21:46:38;;;;;;;12.52;8.30;;;11.40;88.30;;;;;;5092674;28;20020;-84
2021/09/07 21:49:04;;;;;;;15.32;7.63;;;11.40;88.40;;;;;;5092571;28;20111;-84
2021/09/07 21:51:30;;;;;;;15.73;7.60;;;11.40;88.60;;;;;;5092599;28;20026;-84
2021/09/07 21:53:56;;;;;;;13.57;7.65;;;11.30;88.70;;;;;;5093154;28;20034;-84
2021/09/07 21:56:22;;;;;;;13.13;6.82;;;11.30;88.80;;;;;;5092543;28;20024;-84
2021/09/07 21:58:47;;;;;;;15.95;7.55;;;11.30;88.90;;;;;;5094057;28;20028;-84
2021/09/07 22:01:13;;;;;;;14.23;7.32;;;11.30;89.10;;;;;;5093744;28;20020;-85
2021/09/07 22:03:39;;;;;;;15.70;8.10;;;11.20;89.20;;;;;;5092197;28;20410;-84
2021/09/07 22:06:04;;;;;;;15.50;8.15;;;11.20;89.30;;;;;;5093767;28;20028;-84
2021/09/07 22:08:30;;;;;;;12.90;8.57;;;11.20;89.50;;;;;;5093253;28;20035;-84
2021/09/07 22:10:57;;;;;;;13.70;8.38;;;11.20;89.70;;;;;;5092713;28;20020;-84
2021/09/07 22:13:23;;;;;;;16.35;8.82;;;11.10;89.60;;;;;;5093452;28;20028;-84
2021/09/07 22:15:49;;;;;;;16.13;8.80;;;11.10;89.80;;;;;;5093621;28;20039;-84
2021/09/07 22:18:15;;;;;;;16.70;9.13;;;11.10;89.80;;;;;;5092363;28;20028;-84
2021/09/07 22:20:41;;;;;;;16.45;9.18;;;11.00;90.00;;;;;;5092309;28;20115;-84
2021/09/07 22:23:08;;;;;;;13.40;8.20;;;11.00;90.00;;;;;;5093312;28;20028;-84
2021/09/07 22:25:35;;;;;;;15.15;9.05;;;11.00;90.10;;;;;;5092546;28;20521;-84
2021/09/07 22:28:01;;;;;;;15.82;8.80;;;11.00;90.20;;;;;;5092150;28;20028;-85
2021/09/07 22:30:26;;;;;;;15.48;8.43;;;11.00;90.30;;;;;;5092268;28;20024;-85
2021/09/07 22:32:52;;;;;;;14.77;9.20;;;10.90;90.30;;;;;;5093691;28;20374;-84
2021/09/07 22:35:18;;;;;;;15.70;8.52;;;10.90;90.40;;;;;;5091855;28;20024;-84
2021/09/07 22:37:43;;;;;;;20.48;8.88;;;10.90;90.50;;;;;;5091872;28;20019;-84
2021/09/07 22:40:10;;;;;;;13.10;8.77;;;10.90;90.60;;;;;;5093361;28;20439;-85
2021/09/07 22:42:36;;;;;;;18.70;9.27;;;10.90;90.60;;;;;;5093334;28;20448;-84
2021/09/07 22:45:02;;;;;;;16.17;8.65;;;10.90;90.60;;;;;;5091922;28;20054;-84
2021/09/07 22:47:28;;;;;;;14.68;8.48;;;10.80;90.60;;;;;;5093206;28;20062;-84
2021/09/07 22:49:54;;;;;;;19.17;8.75;;;10.80;90.70;;;;;;5092472;28;20020;-85
2021/09/07 22:52:19;;;;;;;14.82;8.98;;;10.80;90.80;;;;;;5095927;28;20032;-85
2021/09/07 22:54:45;;;;;;;16.70;9.10;;;10.80;90.80;;;;;;5095759;28;20027;-84
2021/09/07 22:57:11;;;;;;;17.30;9.20;;;10.80;90.80;;;;;;5095521;28;20451;-84
2021/09/07 22:59:36;;;;;;;15.10;8.98;;;10.70;90.80;;;;;;5096087;28;20130;-84
2021/09/07 23:02:02;;;;;;;16.17;8.27;;;10.70;90.90;;;;;;5095780;28;20028;-84
2021/09/07 23:04:28;;;;;;;14.27;8.52;;;10.70;91.00;;;;;;5096655;28;20193;-84
2021/09/07 23:06:53;;;;;;;15.45;9.50;;;10.70;91.00;;;;;;5095259;28;20462;-85
2021/09/07 23:09:19;;;;;;;15.80;9.10;;;10.60;91.00;;;;;;5096643;28;20086;-85
2021/09/07 23:11:45;;;;;;;14.68;8.52;;;10.60;91.00;;;;;;5096810;28;20020;-85
2021/09/07 23:14:10;;;;;;;16.30;9.02;;;10.60;91.10;;;;;;5095496;28;20466;-85
2021/09/07 23:16:36;;;;;;;15.27;9.25;;;10.60;91.10;;;;;;5096983;28;20415;-85
2021/09/07 23:19:03;;;;;;;15.75;8.73;;;10.50;91.20;;;;;;5095442;28;20028;-85
2021/09/07 23:21:28;;;;;;;14.32;8.57;;;10.50;91.20;;;;;;5095130;28;20519;-85
2021/09/07 23:23:55;;;;;;;16.52;9.52;;;10.50;91.30;;;;;;5094959;28;20024;-84
2021/09/07 23:26:21;;;;;;;14.50;8.52;;;10.50;91.40;;;;;;5095191;28;20470;-84
2021/09/07 23:28:46;;;;;;;14.85;8.90;;;10.50;91.40;;;;;;5096430;28;20028;-85
2021/09/07 23:31:12;;;;;;;17.92;9.18;;;10.50;91.40;;;;;;5096416;28;20027;-85
2021/09/07 23:33:38;;;;;;;15.80;8.70;;;10.40;91.40;;;;;;5095102;28;20052;-85
2021/09/07 23:36:05;;;;;;;18.55;9.07;;;10.40;91.50;;;;;;5095034;28;20081;-85
2021/09/07 23:38:31;;;;;;;15.07;8.52;;;10.40;91.50;;;;;;5096171;28;20036;-85
2021/09/07 23:40:58;;;;;;;14.65;8.82;;;10.40;91.60;;;;;;5095070;28;20028;-85
2021/09/07 23:43:25;;;;;;;14.38;7.97;;;10.30;91.60;;;;;;5096073;28;20020;-85
2021/09/07 23:45:51;;;;;;;14.57;8.55;;;10.30;91.70;;;;;;5094889;28;20378;-84
2021/09/07 23:48:16;;;;;;;13.98;8.23;;;10.30;91.70;;;;;;5094851;28;20072;-85
2021/09/07 23:50:42;;;;;;;15.35;8.50;;;10.30;91.80;;;;;;5096097;28;20099;-85
2021/09/07 23:53:08;;;;;;;15.05;8.80;;;10.30;91.90;;;;;;5094539;28;20108;-85
2021/09/07 23:55:34;;;;;;;14.38;8.35;;;10.30;91.80;;;;;;5094908;28;20484;-85
2021/09/07 23:57:59;;;;;;;13.10;7.93;;;10.20;91.80;;;;;;5095758;28;20036;-85
